DXB weather

Dubai International Airport
Dubai, Dubai Emirate, United Arab Emirates

Public forecast

Using degrees Celsius for public forecast. Weather courtesy of forecast.io.

METAR (pilot weather report)

Retrieved 2018/02/21 13:00 UTC (24 minutes ago):

OMDB 211300Z 32008KT 290V360 6000 NSC 23/15 Q1012 NOSIG

TAF (pilot weather forecast)

Retrieved 2018/02/21 12:00 UTC (1 hour ago):

TAF OMDB 211104Z 2112/2218 31010KT 7000 NSC BECMG 2116/2118 08005KT PROB30 2200/2204 4000 HZ BECMG 2208/2210 33010KT